createdAt,value
2023-04-10T00:00:46.034Z,3.47
2023-04-10T00:03:24.426Z,3.45
2023-04-10T00:05:54.991Z,3.45
2023-04-10T00:08:24.741Z,3.45
2023-04-10T00:10:57.270Z,3.47
2023-04-10T00:13:27.088Z,3.46
2023-04-10T00:15:55.404Z,3.47
2023-04-10T00:18:23.636Z,3.50
2023-04-10T00:20:51.958Z,3.54
2023-04-10T00:23:20.156Z,3.59
2023-04-10T00:25:49.178Z,3.61
2023-04-10T00:28:17.559Z,3.60
2023-04-10T00:30:45.783Z,3.58
2023-04-10T00:33:13.969Z,3.58
2023-04-10T00:35:42.392Z,3.52
2023-04-10T00:38:10.930Z,3.46
2023-04-10T00:40:39.360Z,3.43
2023-04-10T00:43:07.864Z,3.36
2023-04-10T00:45:36.481Z,3.29
2023-04-10T00:48:04.979Z,3.27
2023-04-10T00:50:33.344Z,3.28
2023-04-10T00:53:01.691Z,3.28
2023-04-10T00:55:30.005Z,3.30
2023-04-10T00:57:58.608Z,3.30
2023-04-10T01:00:26.866Z,3.30
2023-04-10T01:02:56.033Z,3.29
2023-04-10T01:05:27.056Z,3.30
2023-04-10T01:07:55.268Z,3.32
2023-04-10T01:10:42.842Z,3.30
2023-04-10T01:13:28.171Z,3.25
2023-04-10T01:16:09.853Z,3.13
2023-04-10T01:18:57.183Z,3.03
2023-04-10T01:21:28.319Z,3.00
2023-04-10T01:24:08.345Z,3.01
2023-04-10T01:26:52.923Z,3.05
2023-04-10T01:29:24.697Z,3.05
2023-04-10T01:31:58.385Z,3.06
2023-04-10T01:34:41.372Z,3.04
2023-04-10T01:37:16.835Z,3.03
2023-04-10T01:39:50.052Z,3.02
2023-04-10T01:42:20.443Z,3.04
2023-04-10T01:44:50.448Z,3.07
2023-04-10T01:47:19.558Z,3.11
2023-04-10T01:49:49.811Z,3.14
2023-04-10T01:52:19.056Z,3.15
2023-04-10T01:54:51.527Z,3.15
2023-04-10T01:57:21.541Z,3.12
2023-04-10T01:59:50.075Z,3.09
2023-04-10T02:02:18.409Z,3.07
2023-04-10T02:04:51.962Z,3.04
2023-04-10T02:07:47.681Z,3.05
2023-04-10T02:10:24.975Z,3.04
2023-04-10T02:12:58.962Z,3.05
2023-04-10T02:15:32.441Z,3.04
2023-04-10T02:18:07.076Z,3.03
2023-04-10T02:20:36.273Z,3.01
2023-04-10T02:23:05.721Z,2.97
2023-04-10T02:25:34.589Z,2.94
2023-04-10T02:28:07.131Z,2.91
2023-04-10T02:30:36.122Z,2.89
2023-04-10T02:33:04.564Z,2.89
2023-04-10T02:35:34.302Z,2.90
2023-04-10T02:38:02.739Z,2.91
2023-04-10T02:40:30.965Z,2.91
2023-04-10T02:42:59.212Z,2.89
2023-04-10T02:45:27.510Z,2.86
2023-04-10T02:47:55.873Z,2.84
2023-04-10T02:50:24.210Z,2.82
2023-04-10T02:52:52.437Z,2.83
2023-04-10T02:55:20.622Z,2.84
2023-04-10T02:57:48.866Z,2.84
2023-04-10T03:00:19.468Z,2.82
2023-04-10T03:02:47.967Z,2.79
2023-04-10T03:05:16.396Z,2.77
2023-04-10T03:07:44.633Z,2.72
2023-04-10T03:10:12.885Z,2.65
2023-04-10T03:12:41.080Z,2.57
2023-04-10T03:15:10.413Z,2.51
2023-04-10T03:17:38.617Z,2.49
2023-04-10T03:20:07.946Z,2.47
2023-04-10T03:22:36.758Z,2.48
2023-04-10T03:25:05.672Z,2.48
2023-04-10T03:27:35.161Z,2.48
2023-04-10T03:30:03.700Z,2.48
2023-04-10T03:32:31.872Z,2.47
2023-04-10T03:35:00.039Z,2.47
2023-04-10T03:37:28.672Z,2.49
2023-04-10T03:39:56.877Z,2.53
2023-04-10T03:42:25.108Z,2.55
2023-04-10T03:44:53.356Z,2.56
2023-04-10T03:47:21.548Z,2.55
2023-04-10T03:49:49.858Z,2.53
2023-04-10T03:52:18.178Z,2.51
2023-04-10T03:54:46.752Z,2.48
2023-04-10T03:57:14.936Z,2.43
2023-04-10T03:59:43.165Z,2.40
2023-04-10T04:02:11.828Z,2.38
2023-04-10T04:04:41.244Z,2.38
2023-04-10T04:07:10.455Z,2.38
2023-04-10T04:09:39.573Z,2.38
2023-04-10T04:12:08.364Z,2.37
2023-04-10T04:14:36.737Z,2.35
2023-04-10T04:17:05.081Z,2.35
2023-04-10T04:19:33.514Z,2.36
2023-04-10T04:22:02.175Z,2.39
2023-04-10T04:24:30.523Z,2.40
2023-04-10T04:26:58.815Z,2.40
2023-04-10T04:29:27.135Z,2.42
2023-04-10T04:31:55.745Z,2.42
2023-04-10T04:34:24.241Z,2.41
2023-04-10T04:36:52.593Z,2.42
2023-04-10T04:39:23.422Z,2.43
2023-04-10T04:41:51.600Z,2.44
2023-04-10T04:44:20.230Z,2.47
2023-04-10T04:46:48.397Z,2.50
2023-04-10T04:49:16.602Z,2.52
2023-04-10T04:51:44.918Z,2.53
2023-04-10T04:54:13.086Z,2.53
2023-04-10T04:56:41.390Z,2.54
2023-04-10T04:59:09.716Z,2.56
2023-04-10T05:01:38.101Z,2.59
2023-04-10T05:04:06.635Z,2.62
2023-04-10T05:06:35.056Z,2.65
2023-04-10T05:09:03.322Z,2.68
2023-04-10T05:11:31.578Z,2.70
2023-04-10T05:14:00.527Z,2.71
2023-04-10T05:16:28.785Z,2.72
2023-04-10T05:18:57.437Z,2.74
2023-04-10T05:21:26.114Z,2.79
2023-04-10T05:23:54.397Z,2.84
2023-04-10T05:26:22.715Z,2.89
2023-04-10T05:28:51.342Z,2.95
2023-04-10T05:31:19.646Z,3.00
2023-04-10T05:33:47.922Z,3.05
2023-04-10T05:36:18.467Z,3.12
2023-04-10T05:38:46.700Z,3.19
2023-04-10T05:41:14.898Z,3.27
2023-04-10T05:43:43.253Z,3.36
2023-04-10T05:46:12.047Z,3.48
2023-04-10T05:48:40.508Z,3.59
2023-04-10T05:51:08.948Z,3.69
2023-04-10T05:53:40.491Z,3.79
2023-04-10T05:56:09.100Z,3.87
2023-04-10T05:58:37.478Z,3.95
2023-04-10T06:01:06.212Z,4.10
2023-04-10T06:03:34.736Z,4.22
2023-04-10T06:06:03.570Z,4.32
2023-04-10T06:08:32.024Z,4.41
2023-04-10T06:11:00.565Z,4.54
2023-04-10T06:13:28.871Z,4.64
2023-04-10T06:15:57.115Z,4.73
2023-04-10T06:18:25.785Z,4.84
2023-04-10T06:20:54.237Z,4.96
2023-04-10T06:23:22.457Z,5.08
2023-04-10T06:25:50.840Z,5.21
2023-04-10T06:28:19.022Z,5.32
2023-04-10T06:30:47.238Z,5.48
2023-04-10T06:33:16.765Z,5.62
2023-04-10T06:35:45.005Z,5.75
2023-04-10T06:38:13.236Z,5.89
2023-04-10T06:40:42.898Z,6.02
2023-04-10T06:43:11.265Z,6.16
2023-04-10T06:45:39.583Z,6.28
2023-04-10T06:48:07.845Z,6.40
2023-04-10T06:50:36.001Z,6.52
2023-04-10T06:53:04.708Z,6.62
2023-04-10T06:55:33.012Z,6.73
2023-04-10T06:58:01.362Z,6.85
2023-04-10T07:00:31.416Z,6.97
2023-04-10T07:02:59.621Z,7.10
2023-04-10T07:05:28.005Z,7.20
2023-04-10T07:07:56.242Z,7.31
2023-04-10T07:10:25.111Z,7.40
2023-04-10T07:12:53.365Z,7.50
2023-04-10T07:15:22.092Z,7.59
2023-04-10T07:17:50.582Z,7.68
2023-04-10T07:20:19.009Z,7.76
2023-04-10T07:22:47.240Z,7.86
2023-04-10T07:25:15.733Z,7.98
2023-04-10T07:27:44.204Z,8.09
2023-04-10T07:30:13.709Z,8.20
2023-04-10T07:32:42.694Z,8.31
2023-04-10T07:35:11.250Z,8.41
2023-04-10T07:37:40.054Z,8.50
2023-04-10T07:40:08.911Z,8.60
2023-04-10T07:42:37.163Z,8.72
2023-04-10T07:45:06.732Z,8.84
2023-04-10T07:47:34.970Z,8.95
2023-04-10T07:50:03.859Z,9.07
2023-04-10T07:52:32.187Z,9.17
2023-04-10T07:55:04.743Z,9.22
2023-04-10T07:57:32.957Z,9.27
2023-04-10T08:00:01.972Z,9.32
2023-04-10T08:02:30.905Z,9.37
2023-04-10T08:04:59.509Z,9.44
2023-04-10T08:07:27.939Z,9.52
2023-04-10T08:09:56.505Z,9.62
2023-04-10T08:12:24.690Z,9.70
2023-04-10T08:14:52.971Z,9.75
2023-04-10T08:17:21.521Z,9.76
2023-04-10T08:19:49.743Z,9.79
2023-04-10T08:22:18.053Z,9.84
2023-04-10T08:24:46.225Z,9.92
2023-04-10T08:27:16.270Z,10.00
2023-04-10T08:29:44.569Z,10.08
2023-04-10T08:32:12.806Z,10.16
2023-04-10T08:34:41.070Z,10.27
2023-04-10T08:37:12.383Z,10.38
2023-04-10T08:39:40.689Z,10.48
2023-04-10T08:42:08.886Z,10.57
2023-04-10T08:44:38.682Z,10.67
2023-04-10T08:47:08.711Z,10.74
2023-04-10T08:49:55.611Z,10.81
2023-04-10T08:52:29.925Z,10.90
2023-04-10T08:55:00.868Z,10.98
2023-04-10T08:57:29.860Z,11.08
2023-04-10T08:59:59.571Z,11.18
2023-04-10T09:02:33.394Z,11.27
2023-04-10T09:05:04.362Z,11.35
2023-04-10T09:07:32.656Z,11.44
2023-04-10T09:10:01.062Z,11.51
2023-04-10T09:12:29.298Z,11.58
2023-04-10T09:14:57.540Z,11.64
2023-04-10T09:17:25.799Z,11.70
2023-04-10T09:19:56.341Z,11.74
2023-04-10T09:22:32.869Z,11.82
2023-04-10T09:25:03.942Z,11.90
2023-04-10T09:27:37.587Z,11.95
2023-04-10T09:30:08.519Z,12.01
2023-04-10T09:32:45.241Z,12.09
2023-04-10T09:35:15.294Z,12.16
2023-04-10T09:37:47.300Z,12.24
2023-04-10T09:40:25.634Z,12.32
2023-04-10T09:42:56.464Z,12.41
2023-04-10T09:45:24.842Z,12.46
2023-04-10T09:48:08.450Z,12.50
2023-04-10T09:50:41.325Z,12.53
2023-04-10T09:53:12.540Z,12.53
2023-04-10T09:55:42.337Z,12.57
2023-04-10T09:58:11.220Z,12.65
2023-04-10T10:00:42.289Z,12.72
2023-04-10T10:03:29.251Z,12.81
2023-04-10T10:05:57.822Z,12.88
2023-04-10T10:08:26.469Z,12.99
2023-04-10T10:10:59.431Z,13.09
2023-04-10T10:13:34.866Z,13.15
2023-04-10T10:16:09.175Z,13.21
2023-04-10T10:19:25.961Z,13.28
2023-04-10T10:21:55.879Z,13.41
2023-04-10T10:24:26.615Z,13.50
2023-04-10T10:26:58.786Z,13.57
2023-04-10T10:29:32.311Z,13.58
2023-04-10T10:32:03.159Z,13.60
2023-04-10T10:34:32.114Z,13.67
2023-04-10T10:37:00.874Z,13.73
2023-04-10T10:39:48.211Z,13.80
2023-04-10T10:42:27.961Z,13.89
2023-04-10T10:45:19.878Z,13.97
2023-04-10T10:47:53.596Z,14.05
2023-04-10T10:50:24.675Z,14.11
2023-04-10T10:52:56.259Z,14.14
2023-04-10T10:55:50.772Z,14.15
2023-04-10T10:58:48.383Z,14.18
2023-04-10T11:01:17.486Z,14.24
2023-04-10T11:03:47.139Z,14.31
2023-04-10T11:06:19.733Z,14.33
2023-04-10T11:08:53.632Z,14.34
2023-04-10T11:11:28.672Z,14.39
2023-04-10T11:13:56.962Z,14.45
2023-04-10T11:16:46.931Z,14.50
2023-04-10T11:19:20.026Z,14.52
2023-04-10T11:21:59.641Z,14.52
2023-04-10T11:24:28.708Z,14.56
2023-04-10T11:26:57.759Z,14.63
2023-04-10T11:29:28.922Z,14.72
2023-04-10T11:31:59.225Z,14.80
2023-04-10T11:34:29.182Z,14.88
2023-04-10T11:36:57.482Z,14.95
2023-04-10T11:39:26.766Z,15.02
2023-04-10T11:41:56.828Z,15.11
2023-04-10T11:44:32.130Z,15.18
2023-04-10T11:47:00.407Z,15.25
2023-04-10T11:49:35.027Z,15.28
2023-04-10T11:52:03.749Z,15.33
2023-04-10T11:54:32.905Z,15.40
2023-04-10T11:57:15.690Z,15.45
2023-04-10T11:59:51.406Z,15.49
2023-04-10T12:02:19.754Z,15.58
2023-04-10T12:04:58.783Z,15.69
2023-04-10T12:07:30.814Z,15.82
2023-04-10T12:10:00.558Z,15.93
2023-04-10T12:12:39.213Z,16.02
2023-04-10T12:15:27.856Z,16.06
2023-04-10T12:17:57.151Z,16.05
2023-04-10T12:20:28.970Z,16.01
2023-04-10T12:23:07.973Z,16.01
2023-04-10T12:26:19.166Z,15.98
2023-04-10T12:28:58.385Z,16.15
2023-04-10T12:31:31.878Z,16.20
2023-04-10T12:34:02.424Z,16.20
2023-04-10T12:36:34.707Z,16.21
2023-04-10T12:39:05.030Z,16.18
2023-04-10T12:41:35.275Z,16.16
2023-04-10T12:44:09.013Z,16.19
2023-04-10T12:46:38.105Z,16.21
2023-04-10T12:49:16.205Z,16.23
2023-04-10T12:51:49.157Z,16.26
2023-04-10T12:54:33.489Z,16.32
2023-04-10T12:57:04.248Z,16.36
2023-04-10T12:59:34.004Z,16.42
2023-04-10T13:02:02.300Z,16.50
2023-04-10T13:04:32.435Z,16.56
2023-04-10T13:07:01.410Z,16.61
2023-04-10T13:09:29.735Z,16.62
2023-04-10T13:11:58.677Z,16.63
2023-04-10T13:14:27.337Z,16.64
2023-04-10T13:16:55.524Z,16.69
2023-04-10T13:19:23.869Z,16.74
2023-04-10T13:21:52.251Z,16.81
2023-04-10T13:24:20.588Z,16.85
2023-04-10T13:26:48.824Z,16.87
2023-04-10T13:29:17.183Z,16.91
2023-04-10T13:31:45.541Z,16.95
2023-04-10T13:34:13.819Z,16.97
2023-04-10T13:36:42.391Z,16.98
2023-04-10T13:39:11.272Z,17.00
2023-04-10T13:41:39.563Z,17.01
2023-04-10T13:44:08.022Z,17.03
2023-04-10T13:46:36.295Z,17.06
2023-04-10T13:49:04.684Z,17.09
2023-04-10T13:51:33.145Z,17.11
2023-04-10T13:54:03.129Z,17.14
2023-04-10T13:56:31.435Z,17.19
2023-04-10T13:58:59.798Z,17.23
2023-04-10T14:01:28.205Z,17.25
2023-04-10T14:03:56.972Z,17.24
2023-04-10T14:06:25.509Z,17.24
2023-04-10T14:08:54.255Z,17.24
2023-04-10T14:11:23.366Z,17.24
2023-04-10T14:13:52.098Z,17.24
2023-04-10T14:16:20.626Z,17.20
2023-04-10T14:18:49.158Z,17.11
2023-04-10T14:21:19.439Z,17.00
2023-04-10T14:23:49.010Z,16.90
2023-04-10T14:26:17.539Z,16.82
2023-04-10T14:28:45.981Z,16.78
2023-04-10T14:31:14.231Z,16.76
2023-04-10T14:33:42.426Z,16.72
2023-04-10T14:36:10.874Z,16.69
2023-04-10T14:38:40.072Z,16.67
2023-04-10T14:41:08.358Z,16.64
2023-04-10T14:43:37.865Z,16.64
2023-04-10T14:46:06.534Z,16.62
2023-04-10T14:48:34.857Z,16.59
2023-04-10T14:51:04.549Z,16.53
2023-04-10T14:53:32.674Z,16.45
2023-04-10T14:56:01.220Z,16.38
2023-04-10T14:58:29.443Z,16.36
2023-04-10T15:00:57.782Z,16.34
2023-04-10T15:03:26.093Z,16.30
2023-04-10T15:06:01.726Z,16.21
2023-04-10T15:08:30.315Z,16.13
2023-04-10T15:10:58.687Z,16.05
2023-04-10T15:13:26.970Z,15.96
2023-04-10T15:15:55.747Z,15.87
2023-04-10T15:18:26.005Z,15.79
2023-04-10T15:20:56.139Z,15.74
2023-04-10T15:23:24.777Z,15.71
2023-04-10T15:25:53.779Z,15.68
2023-04-10T15:28:22.151Z,15.61
2023-04-10T15:30:50.512Z,15.56
2023-04-10T15:33:19.098Z,15.50
2023-04-10T15:35:51.183Z,15.44
2023-04-10T15:38:19.535Z,15.38
2023-04-10T15:40:48.077Z,15.32
2023-04-10T15:43:16.804Z,15.28
2023-04-10T15:45:45.061Z,15.25
2023-04-10T15:48:13.380Z,15.21
2023-04-10T15:50:42.936Z,15.16
2023-04-10T15:53:11.130Z,15.11
2023-04-10T15:55:41.105Z,15.06
2023-04-10T15:58:09.332Z,15.01
2023-04-10T16:00:37.543Z,14.96
2023-04-10T16:03:06.767Z,14.91
2023-04-10T16:05:35.507Z,14.87
2023-04-10T16:08:03.946Z,14.82
2023-04-10T16:10:32.268Z,14.80
2023-04-10T16:13:04.574Z,14.76
2023-04-10T16:15:37.371Z,14.73
2023-04-10T16:18:08.518Z,14.69
2023-04-10T16:20:36.816Z,14.65
2023-04-10T16:23:05.121Z,14.61
2023-04-10T16:25:33.304Z,14.57
2023-04-10T16:28:02.556Z,14.53
2023-04-10T16:30:30.866Z,14.48
2023-04-10T16:32:59.065Z,14.44
2023-04-10T16:35:27.549Z,14.41
2023-04-10T16:37:55.851Z,14.39
2023-04-10T16:40:28.020Z,14.36
2023-04-10T16:42:56.584Z,14.34
2023-04-10T16:45:24.968Z,14.30
2023-04-10T16:47:53.554Z,14.26
2023-04-10T16:50:21.894Z,14.22
2023-04-10T16:52:52.586Z,14.18
2023-04-10T16:55:20.965Z,14.14
2023-04-10T16:57:49.319Z,14.11
2023-04-10T17:00:17.969Z,14.07
2023-04-10T17:02:46.463Z,14.01
2023-04-10T17:05:15.170Z,13.95
2023-04-10T17:07:45.003Z,13.90
2023-04-10T17:10:13.586Z,13.86
2023-04-10T17:12:42.759Z,13.83
2023-04-10T17:15:11.697Z,13.77
2023-04-10T17:17:40.118Z,13.72
2023-04-10T17:20:09.985Z,13.65
2023-04-10T17:22:39.528Z,13.59
2023-04-10T17:25:08.879Z,13.51
2023-04-10T17:27:39.793Z,13.48
2023-04-10T17:30:13.258Z,13.43
2023-04-10T17:32:42.006Z,13.36
2023-04-10T17:35:10.681Z,13.30
2023-04-10T17:37:39.009Z,13.24
2023-04-10T17:40:08.150Z,13.18
2023-04-10T17:42:36.455Z,13.12
2023-04-10T17:45:05.458Z,13.06
2023-04-10T17:47:33.816Z,13.01
2023-04-10T17:50:03.569Z,12.95
2023-04-10T17:52:32.270Z,12.88
2023-04-10T17:55:01.840Z,12.81
2023-04-10T17:57:30.115Z,12.76
2023-04-10T17:59:58.483Z,12.69
2023-04-10T18:02:26.799Z,12.63
2023-04-10T18:04:56.330Z,12.57
2023-04-10T18:07:24.718Z,12.51
2023-04-10T18:09:52.993Z,12.47
2023-04-10T18:12:21.685Z,12.42
2023-04-10T18:14:50.100Z,12.37
2023-04-10T18:17:18.620Z,12.30
2023-04-10T18:19:46.842Z,12.24
2023-04-10T18:22:15.684Z,12.17
2023-04-10T18:24:47.799Z,12.10
2023-04-10T18:27:16.190Z,12.05
2023-04-10T18:29:45.671Z,11.97
2023-04-10T18:32:14.510Z,11.92
2023-04-10T18:34:50.099Z,11.85
2023-04-10T18:37:18.550Z,11.79
2023-04-10T18:39:46.845Z,11.72
2023-04-10T18:42:15.081Z,11.68
2023-04-10T18:44:43.684Z,11.62
2023-04-10T18:47:12.327Z,11.56
2023-04-10T18:49:43.080Z,11.49
2023-04-10T18:52:11.438Z,11.44
2023-04-10T18:54:39.765Z,11.39
2023-04-10T18:57:08.080Z,11.33
2023-04-10T18:59:37.657Z,11.27
2023-04-10T19:02:05.943Z,11.22
2023-04-10T19:04:34.946Z,11.16
2023-04-10T19:07:04.181Z,11.12
2023-04-10T19:09:32.471Z,11.07
2023-04-10T19:12:01.684Z,11.02
2023-04-10T19:14:29.973Z,10.98
2023-04-10T19:16:58.693Z,10.95
2023-04-10T19:19:27.142Z,10.93
2023-04-10T19:21:58.114Z,10.93
2023-04-10T19:24:32.996Z,10.94
2023-04-10T19:27:04.736Z,10.95
2023-04-10T19:29:33.124Z,10.95
2023-04-10T19:32:01.505Z,10.93
2023-04-10T19:34:29.881Z,10.90
2023-04-10T19:36:59.428Z,10.87
2023-04-10T19:39:27.644Z,10.84
2023-04-10T19:41:57.612Z,10.80
2023-04-10T19:44:26.123Z,10.76
2023-04-10T19:46:54.462Z,10.72
2023-04-10T19:49:22.949Z,10.68
2023-04-10T19:51:51.451Z,10.63
2023-04-10T19:54:19.864Z,10.58
2023-04-10T19:56:48.156Z,10.54
2023-04-10T19:59:16.402Z,10.50
2023-04-10T20:01:44.857Z,10.46
2023-04-10T20:04:13.475Z,10.42
2023-04-10T20:06:43.256Z,10.39
2023-04-10T20:09:11.566Z,10.36
2023-04-10T20:11:39.947Z,10.35
2023-04-10T20:14:08.302Z,10.34
2023-04-10T20:16:37.170Z,10.33
2023-04-10T20:19:05.475Z,10.32
2023-04-10T20:21:33.999Z,10.31
2023-04-10T20:24:02.313Z,10.30
2023-04-10T20:26:30.935Z,10.28
2023-04-10T20:28:59.368Z,10.26
2023-04-10T20:31:27.748Z,10.25
2023-04-10T20:33:56.278Z,10.22
2023-04-10T20:36:24.589Z,10.21
2023-04-10T20:38:53.353Z,10.21
2023-04-10T20:41:21.851Z,10.21
2023-04-10T20:43:50.062Z,10.22
2023-04-10T20:46:18.356Z,10.23
2023-04-10T20:48:46.721Z,10.21
2023-04-10T20:51:15.037Z,10.19
2023-04-10T20:53:43.224Z,10.18
2023-04-10T20:56:11.480Z,10.16
2023-04-10T20:58:39.831Z,10.13
2023-04-10T21:01:11.370Z,10.09
2023-04-10T21:03:39.919Z,10.06
2023-04-10T21:06:09.565Z,10.05
2023-04-10T21:08:37.909Z,10.05
2023-04-10T21:11:06.466Z,10.06
2023-04-10T21:13:36.485Z,10.07
2023-04-10T21:16:06.912Z,10.07
2023-04-10T21:18:35.366Z,10.06
2023-04-10T21:21:04.466Z,10.04
2023-04-10T21:23:32.773Z,10.03
2023-04-10T21:26:01.859Z,10.00
2023-04-10T21:28:30.551Z,9.95
2023-04-10T21:30:58.802Z,9.91
2023-04-10T21:33:27.059Z,9.88
2023-04-10T21:35:56.120Z,9.85
2023-04-10T21:38:24.585Z,9.83
2023-04-10T21:40:55.803Z,9.83
2023-04-10T21:43:24.071Z,9.83
2023-04-10T21:45:52.472Z,9.82
2023-04-10T21:48:21.460Z,9.81
2023-04-10T21:50:49.998Z,9.80
2023-04-10T21:53:18.422Z,9.78
2023-04-10T21:55:46.733Z,9.75
2023-04-10T21:58:14.980Z,9.71
2023-04-10T22:00:47.340Z,9.68
2023-04-10T22:03:16.614Z,9.65
2023-04-10T22:05:46.059Z,9.64
2023-04-10T22:08:15.277Z,9.60
2023-04-10T22:10:45.757Z,9.59
2023-04-10T22:13:27.416Z,9.57
2023-04-10T22:16:00.205Z,9.54
2023-04-10T22:18:28.447Z,9.50
2023-04-10T22:20:56.729Z,9.47
2023-04-10T22:23:25.193Z,9.44
2023-04-10T22:25:53.595Z,9.42
2023-04-10T22:28:22.296Z,9.38
2023-04-10T22:30:51.006Z,9.38
2023-04-10T22:33:19.281Z,9.38
2023-04-10T22:35:47.537Z,9.39
2023-04-10T22:38:16.031Z,9.37
2023-04-10T22:40:44.265Z,9.36
2023-04-10T22:43:13.320Z,9.35
2023-04-10T22:45:42.311Z,9.33
2023-04-10T22:48:10.588Z,9.32
2023-04-10T22:50:38.819Z,9.30
2023-04-10T22:53:07.052Z,9.30
2023-04-10T22:55:38.408Z,9.32
2023-04-10T22:58:07.935Z,9.33
2023-04-10T23:00:36.474Z,9.33
2023-04-10T23:03:04.964Z,9.33
2023-04-10T23:05:33.410Z,9.30
2023-04-10T23:08:01.779Z,9.27
2023-04-10T23:10:30.138Z,9.26
2023-04-10T23:12:58.441Z,9.25
2023-04-10T23:15:34.482Z,9.27
2023-04-10T23:18:02.958Z,9.27
2023-04-10T23:20:31.493Z,9.26
2023-04-10T23:23:01.170Z,9.24
2023-04-10T23:25:29.440Z,9.22
2023-04-10T23:27:59.694Z,9.20
2023-04-10T23:30:30.962Z,9.19
2023-04-10T23:32:59.291Z,9.20
2023-04-10T23:35:27.917Z,9.20
2023-04-10T23:37:56.637Z,9.21
2023-04-10T23:40:25.092Z,9.21
2023-04-10T23:42:56.009Z,9.19
2023-04-10T23:45:32.348Z,9.18
2023-04-10T23:48:00.603Z,9.15
2023-04-10T23:50:28.946Z,9.14
2023-04-10T23:52:59.527Z,9.14
2023-04-10T23:55:28.273Z,9.16
2023-04-10T23:57:56.638Z,9.16
